sensor_id;sensor_type;location;lat;lon;timestamp;temperature;humidity
9699;DHT22;10089;47.876;8.346;2024-01-30T00:00:34;1.90;99.90
9699;DHT22;10089;47.876;8.346;2024-01-30T00:08:23;2.60;1.00
9699;DHT22;10089;47.876;8.346;2024-01-30T00:11:50;3.50;1.00
9699;DHT22;10089;47.876;8.346;2024-01-30T00:14:55;3.90;1.00
9699;DHT22;10089;47.876;8.346;2024-01-30T00:18:29;3.70;99.90
9699;DHT22;10089;47.876;8.346;2024-01-30T00:21:39;3.80;41.60
9699;DHT22;10089;47.876;8.346;2024-01-30T00:24:53;3.70;99.90
9699;DHT22;10089;47.876;8.346;2024-01-30T00:28:30;3.20;99.90
9699;DHT22;10089;47.876;8.346;2024-01-30T00:32:13;2.70;8.40
9699;DHT22;10089;47.876;8.346;2024-01-30T00:35:49;2.20;1.00
9699;DHT22;10089;47.876;8.346;2024-01-30T00:39:51;1.80;99.90
9699;DHT22;10089;47.876;8.346;2024-01-30T00:43:58;1.60;1.00
9699;DHT22;10089;47.876;8.346;2024-01-30T00:47:27;1.30;99.90
9699;DHT22;10089;47.876;8.346;2024-01-30T00:50:19;1.20;99.90
9699;DHT22;10089;47.876;8.346;2024-01-30T00:53:44;1.60;99.90
9699;DHT22;10089;47.876;8.346;2024-01-30T00:57:42;1.10;99.90
9699;DHT22;10089;47.876;8.346;2024-01-30T01:01:16;1.10;99.90
9699;DHT22;10089;47.876;8.346;2024-01-30T01:04:52;1.10;99.90
9699;DHT22;10089;47.876;8.346;2024-01-30T01:08:24;1.10;99.90
9699;DHT22;10089;47.876;8.346;2024-01-30T01:14:44;1.00;99.90
9699;DHT22;10089;47.876;8.346;2024-01-30T01:22:29;0.90;99.90
9699;DHT22;10089;47.876;8.346;2024-01-30T01:26:42;1.00;99.90
9699;DHT22;10089;47.876;8.346;2024-01-30T01:38:17;0.90;99.90
9699;DHT22;10089;47.876;8.346;2024-01-30T01:41:47;0.90;99.90
9699;DHT22;10089;47.876;8.346;2024-01-30T01:45:40;1.00;99.90
9699;DHT22;10089;47.876;8.346;2024-01-30T01:49:34;0.90;99.90
9699;DHT22;10089;47.876;8.346;2024-01-30T01:57:16;0.90;40.60
9699;DHT22;10089;47.876;8.346;2024-01-30T02:01:38;0.90;99.90
9699;DHT22;10089;47.876;8.346;2024-01-30T02:06:04;0.80;99.90
9699;DHT22;10089;47.876;8.346;2024-01-30T02:09:53;0.80;99.90
9699;DHT22;10089;47.876;8.346;2024-01-30T02:17:23;0.60;99.90
9699;DHT22;10089;47.876;8.346;2024-01-30T02:21:04;0.60;1.00
9699;DHT22;10089;47.876;8.346;2024-01-30T02:24:48;0.40;99.90
9699;DHT22;10089;47.876;8.346;2024-01-30T02:28:05;0.40;1.00
9699;DHT22;10089;47.876;8.346;2024-01-30T02:35:31;0.50;99.90
9699;DHT22;10089;47.876;8.346;2024-01-30T02:50:55;0.30;1.00
9699;DHT22;10089;47.876;8.346;2024-01-30T02:54:59;0.30;1.00
9699;DHT22;10089;47.876;8.346;2024-01-30T03:02:29;0.30;1.00
9699;DHT22;10089;47.876;8.346;2024-01-30T03:14:04;0.40;99.90
9699;DHT22;10089;47.876;8.346;2024-01-30T03:18:05;0.30;1.00
9699;DHT22;10089;47.876;8.346;2024-01-30T03:22:14;0.20;1.00
9699;DHT22;10089;47.876;8.346;2024-01-30T03:26:09;0.10;99.90
9699;DHT22;10089;47.876;8.346;2024-01-30T03:37:29;0.10;99.90
9699;DHT22;10089;47.876;8.346;2024-01-30T03:48:46;-0.10;1.00
9699;DHT22;10089;47.876;8.346;2024-01-30T03:52:34;-0.20;1.00
9699;DHT22;10089;47.876;8.346;2024-01-30T03:56:29;-0.30;1.00
9699;DHT22;10089;47.876;8.346;2024-01-30T04:00:10;-0.30;1.00
9699;DHT22;10089;47.876;8.346;2024-01-30T04:04:53;-0.40;1.00
9699;DHT22;10089;47.876;8.346;2024-01-30T04:12:40;-0.30;1.00
9699;DHT22;10089;47.876;8.346;2024-01-30T04:16:29;-0.20;1.00
9699;DHT22;10089;47.876;8.346;2024-01-30T04:23:36;0.00;99.90
9699;DHT22;10089;47.876;8.346;2024-01-30T04:27:24;0.30;99.90
9699;DHT22;10089;47.876;8.346;2024-01-30T04:38:28;-0.10;1.00
9699;DHT22;10089;47.876;8.346;2024-01-30T04:42:54;-0.10;1.00
9699;DHT22;10089;47.876;8.346;2024-01-30T04:55:00;-0.20;1.00
9699;DHT22;10089;47.876;8.346;2024-01-30T04:58:47;-0.20;1.00
9699;DHT22;10089;47.876;8.346;2024-01-30T05:02:48;-0.20;1.00
9699;DHT22;10089;47.876;8.346;2024-01-30T05:06:26;-0.20;1.00
9699;DHT22;10089;47.876;8.346;2024-01-30T05:10:43;-0.20;1.00
9699;DHT22;10089;47.876;8.346;2024-01-30T05:14:37;-0.10;1.00
9699;DHT22;10089;47.876;8.346;2024-01-30T05:18:32;-0.20;1.00
9699;DHT22;10089;47.876;8.346;2024-01-30T05:22:37;-0.20;99.90
9699;DHT22;10089;47.876;8.346;2024-01-30T05:25:52;-0.20;1.00
9699;DHT22;10089;47.876;8.346;2024-01-30T05:29:53;-0.20;1.00
9699;DHT22;10089;47.876;8.346;2024-01-30T05:37:21;-0.30;99.90
9699;DHT22;10089;47.876;8.346;2024-01-30T05:44:48;-0.10;99.90
9699;DHT22;10089;47.876;8.346;2024-01-30T05:52:46;0.00;99.90
9699;DHT22;10089;47.876;8.346;2024-01-30T05:56:50;-0.10;99.90
9699;DHT22;10089;47.876;8.346;2024-01-30T06:08:15;0.20;13.90
9699;DHT22;10089;47.876;8.346;2024-01-30T06:19:07;0.20;30.10
9699;DHT22;10089;47.876;8.346;2024-01-30T06:22:48;0.20;99.90
9699;DHT22;10089;47.876;8.346;2024-01-30T06:26:41;0.30;1.00
9699;DHT22;10089;47.876;8.346;2024-01-30T06:30:18;0.50;1.00
9699;DHT22;10089;47.876;8.346;2024-01-30T06:33:00;0.60;1.00
9699;DHT22;10089;47.876;8.346;2024-01-30T06:35:32;0.50;1.00
9699;DHT22;10089;47.876;8.346;2024-01-30T06:41:07;0.60;99.90
9699;DHT22;10089;47.876;8.346;2024-01-30T06:43:40;0.70;99.90
9699;DHT22;10089;47.876;8.346;2024-01-30T06:46:09;1.10;99.90
9699;DHT22;10089;47.876;8.346;2024-01-30T06:48:36;1.10;99.90
9699;DHT22;10089;47.876;8.346;2024-01-30T06:51:13;1.40;99.90
9699;DHT22;10089;47.876;8.346;2024-01-30T06:53:39;1.30;99.90
9699;DHT22;10089;47.876;8.346;2024-01-30T06:56:07;1.30;1.00
9699;DHT22;10089;47.876;8.346;2024-01-30T06:58:34;1.30;1.00
9699;DHT22;10089;47.876;8.346;2024-01-30T07:01:47;1.30;1.00
9699;DHT22;10089;47.876;8.346;2024-01-30T07:04:20;1.30;99.90
9699;DHT22;10089;47.876;8.346;2024-01-30T07:06:46;1.40;1.00
9699;DHT22;10089;47.876;8.346;2024-01-30T07:09:12;1.40;1.00
9699;DHT22;10089;47.876;8.346;2024-01-30T07:11:39;1.70;1.00
9699;DHT22;10089;47.876;8.346;2024-01-30T07:14:05;1.60;99.90
9699;DHT22;10089;47.876;8.346;2024-01-30T07:16:55;1.60;99.90
9699;DHT22;10089;47.876;8.346;2024-01-30T07:19:22;1.40;99.90
9699;DHT22;10089;47.876;8.346;2024-01-30T07:21:54;1.40;99.90
9699;DHT22;10089;47.876;8.346;2024-01-30T07:24:21;1.30;54.80
9699;DHT22;10089;47.876;8.346;2024-01-30T07:26:46;1.20;1.00
9699;DHT22;10089;47.876;8.346;2024-01-30T07:29:12;1.30;99.90
9699;DHT22;10089;47.876;8.346;2024-01-30T07:31:38;1.40;1.00
9699;DHT22;10089;47.876;8.346;2024-01-30T07:34:04;1.60;1.00
9699;DHT22;10089;47.876;8.346;2024-01-30T07:36:29;1.80;99.90
9699;DHT22;10089;47.876;8.346;2024-01-30T07:38:55;1.90;1.00
9699;DHT22;10089;47.876;8.346;2024-01-30T07:45:40;1.90;1.00
9699;DHT22;10089;47.876;8.346;2024-01-30T07:48:56;2.00;69.90
9699;DHT22;10089;47.876;8.346;2024-01-30T07:51:23;1.90;1.00
9699;DHT22;10089;47.876;8.346;2024-01-30T07:53:50;1.90;99.90
9699;DHT22;10089;47.876;8.346;2024-01-30T07:56:19;2.00;23.40
9699;DHT22;10089;47.876;8.346;2024-01-30T07:58:45;1.90;99.90
9699;DHT22;10089;47.876;8.346;2024-01-30T08:01:11;2.00;1.00
9699;DHT22;10089;47.876;8.346;2024-01-30T08:03:36;2.10;99.90
9699;DHT22;10089;47.876;8.346;2024-01-30T08:06:03;2.10;1.00
9699;DHT22;10089;47.876;8.346;2024-01-30T08:08:30;2.30;99.90
9699;DHT22;10089;47.876;8.346;2024-01-30T08:10:56;2.40;28.90
9699;DHT22;10089;47.876;8.346;2024-01-30T08:13:22;2.50;99.90
9699;DHT22;10089;47.876;8.346;2024-01-30T08:15:47;2.70;1.00
9699;DHT22;10089;47.876;8.346;2024-01-30T08:18:13;2.90;99.90
9699;DHT22;10089;47.876;8.346;2024-01-30T08:20:39;3.10;1.00
9699;DHT22;10089;47.876;8.346;2024-01-30T08:23:04;3.20;99.90
9699;DHT22;10089;47.876;8.346;2024-01-30T08:25:30;3.30;1.00
9699;DHT22;10089;47.876;8.346;2024-01-30T08:27:57;3.40;1.00
9699;DHT22;10089;47.876;8.346;2024-01-30T08:30:24;3.50;1.00
9699;DHT22;10089;47.876;8.346;2024-01-30T08:32:50;3.70;99.90
9699;DHT22;10089;47.876;8.346;2024-01-30T08:35:17;3.70;99.90
9699;DHT22;10089;47.876;8.346;2024-01-30T08:37:45;3.80;99.90
9699;DHT22;10089;47.876;8.346;2024-01-30T08:40:12;3.90;99.90
9699;DHT22;10089;47.876;8.346;2024-01-30T08:42:39;5.00;99.90
9699;DHT22;10089;47.876;8.346;2024-01-30T08:45:05;4.50;1.00
9699;DHT22;10089;47.876;8.346;2024-01-30T08:47:32;4.60;1.00
9699;DHT22;10089;47.876;8.346;2024-01-30T08:49:58;4.90;1.00
9699;DHT22;10089;47.876;8.346;2024-01-30T08:56:27;6.00;99.90
9699;DHT22;10089;47.876;8.346;2024-01-30T08:58:53;7.00;99.90
9699;DHT22;10089;47.876;8.346;2024-01-30T09:01:20;7.40;1.00
9699;DHT22;10089;47.876;8.346;2024-01-30T09:03:46;7.50;99.90
9699;DHT22;10089;47.876;8.346;2024-01-30T09:06:12;8.10;99.90
9699;DHT22;10089;47.876;8.346;2024-01-30T09:08:38;8.20;52.70
9699;DHT22;10089;47.876;8.346;2024-01-30T09:11:24;8.80;99.90
9699;DHT22;10089;47.876;8.346;2024-01-30T09:13:50;8.00;99.90
9699;DHT22;10089;47.876;8.346;2024-01-30T09:16:15;7.30;1.00
9699;DHT22;10089;47.876;8.346;2024-01-30T09:18:43;6.90;99.90
9699;DHT22;10089;47.876;8.346;2024-01-30T09:21:10;6.30;1.00
9699;DHT22;10089;47.876;8.346;2024-01-30T09:23:36;6.20;99.90
9699;DHT22;10089;47.876;8.346;2024-01-30T09:26:02;6.10;99.90
9699;DHT22;10089;47.876;8.346;2024-01-30T09:28:28;6.00;99.90
9699;DHT22;10089;47.876;8.346;2024-01-30T09:30:57;6.10;1.00
9699;DHT22;10089;47.876;8.346;2024-01-30T09:33:24;6.20;1.00
9699;DHT22;10089;47.876;8.346;2024-01-30T09:35:49;6.20;99.90
9699;DHT22;10089;47.876;8.346;2024-01-30T09:38:16;6.20;99.90
9699;DHT22;10089;47.876;8.346;2024-01-30T09:40:42;6.10;1.00
9699;DHT22;10089;47.876;8.346;2024-01-30T09:43:08;5.80;1.00
9699;DHT22;10089;47.876;8.346;2024-01-30T09:45:35;5.90;1.00
9699;DHT22;10089;47.876;8.346;2024-01-30T09:48:01;6.00;1.00
9699;DHT22;10089;47.876;8.346;2024-01-30T09:50:27;6.00;1.00
9699;DHT22;10089;47.876;8.346;2024-01-30T09:52:55;6.00;99.90
9699;DHT22;10089;47.876;8.346;2024-01-30T09:55:24;6.20;32.20
9699;DHT22;10089;47.876;8.346;2024-01-30T09:57:49;6.60;1.00
9699;DHT22;10089;47.876;8.346;2024-01-30T10:00:15;6.80;1.00
9699;DHT22;10089;47.876;8.346;2024-01-30T10:02:41;7.10;99.90
9699;DHT22;10089;47.876;8.346;2024-01-30T10:05:08;6.90;99.90
9699;DHT22;10089;47.876;8.346;2024-01-30T10:07:34;6.90;99.90
9699;DHT22;10089;47.876;8.346;2024-01-30T10:10:00;7.00;99.90
9699;DHT22;10089;47.876;8.346;2024-01-30T10:12:29;6.70;99.90
9699;DHT22;10089;47.876;8.346;2024-01-30T10:14:56;6.70;99.90
9699;DHT22;10089;47.876;8.346;2024-01-30T10:17:25;6.60;99.90
9699;DHT22;10089;47.876;8.346;2024-01-30T10:19:51;6.70;1.00
9699;DHT22;10089;47.876;8.346;2024-01-30T10:22:17;6.90;1.00
9699;DHT22;10089;47.876;8.346;2024-01-30T10:24:43;7.10;1.00
9699;DHT22;10089;47.876;8.346;2024-01-30T10:27:10;7.10;1.00
9699;DHT22;10089;47.876;8.346;2024-01-30T10:29:37;7.30;1.00
9699;DHT22;10089;47.876;8.346;2024-01-30T10:32:04;7.70;99.90
9699;DHT22;10089;47.876;8.346;2024-01-30T10:34:32;7.80;99.90
9699;DHT22;10089;47.876;8.346;2024-01-30T10:37:09;7.70;99.90
9699;DHT22;10089;47.876;8.346;2024-01-30T10:39:42;7.80;99.90
9699;DHT22;10089;47.876;8.346;2024-01-30T10:42:18;7.70;1.00
9699;DHT22;10089;47.876;8.346;2024-01-30T10:44:51;7.70;99.90
9699;DHT22;10089;47.876;8.346;2024-01-30T10:47:26;7.70;99.90
9699;DHT22;10089;47.876;8.346;2024-01-30T10:49:52;7.60;99.90
9699;DHT22;10089;47.876;8.346;2024-01-30T10:52:20;7.70;1.00
9699;DHT22;10089;47.876;8.346;2024-01-30T10:54:46;7.70;1.00
9699;DHT22;10089;47.876;8.346;2024-01-30T10:57:13;7.70;1.00
9699;DHT22;10089;47.876;8.346;2024-01-30T10:59:41;7.70;1.00
9699;DHT22;10089;47.876;8.346;2024-01-30T11:02:10;7.80;99.90
9699;DHT22;10089;47.876;8.346;2024-01-30T11:04:45;7.70;99.90
9699;DHT22;10089;47.876;8.346;2024-01-30T11:07:19;7.90;99.90
9699;DHT22;10089;47.876;8.346;2024-01-30T11:10:07;8.00;15.60
9699;DHT22;10089;47.876;8.346;2024-01-30T11:12:39;8.00;92.00
9699;DHT22;10089;47.876;8.346;2024-01-30T11:15:13;7.90;99.90
9699;DHT22;10089;47.876;8.346;2024-01-30T11:17:50;7.80;99.90
9699;DHT22;10089;47.876;8.346;2024-01-30T11:20:26;7.80;99.90
9699;DHT22;10089;47.876;8.346;2024-01-30T11:22:55;7.80;99.90
9699;DHT22;10089;47.876;8.346;2024-01-30T11:25:22;7.80;99.90
9699;DHT22;10089;47.876;8.346;2024-01-30T11:27:50;8.00;99.90
9699;DHT22;10089;47.876;8.346;2024-01-30T11:30:27;8.20;99.90
9699;DHT22;10089;47.876;8.346;2024-01-30T11:33:08;8.30;99.90
9699;DHT22;10089;47.876;8.346;2024-01-30T11:35:39;8.60;99.90
9699;DHT22;10089;47.876;8.346;2024-01-30T11:38:06;8.60;99.90
9699;DHT22;10089;47.876;8.346;2024-01-30T11:40:35;8.60;99.90
9699;DHT22;10089;47.876;8.346;2024-01-30T11:43:02;8.90;99.90
9699;DHT22;10089;47.876;8.346;2024-01-30T11:45:32;9.10;1.00
9699;DHT22;10089;47.876;8.346;2024-01-30T11:47:59;9.30;1.00
9699;DHT22;10089;47.876;8.346;2024-01-30T11:50:27;9.40;1.00
9699;DHT22;10089;47.876;8.346;2024-01-30T11:52:54;9.40;1.00
9699;DHT22;10089;47.876;8.346;2024-01-30T11:55:23;9.50;1.00
9699;DHT22;10089;47.876;8.346;2024-01-30T11:57:51;9.60;1.00
9699;DHT22;10089;47.876;8.346;2024-01-30T12:00:20;9.60;99.90
9699;DHT22;10089;47.876;8.346;2024-01-30T12:02:52;9.70;99.90
9699;DHT22;10089;47.876;8.346;2024-01-30T12:05:21;9.70;99.90
9699;DHT22;10089;47.876;8.346;2024-01-30T12:07:47;9.80;1.00
9699;DHT22;10089;47.876;8.346;2024-01-30T12:10:14;9.30;1.00
9699;DHT22;10089;47.876;8.346;2024-01-30T12:12:41;9.30;1.00
9699;DHT22;10089;47.876;8.346;2024-01-30T12:15:09;9.50;1.00
9699;DHT22;10089;47.876;8.346;2024-01-30T12:17:36;9.10;1.00
9699;DHT22;10089;47.876;8.346;2024-01-30T12:20:10;9.00;1.00
9699;DHT22;10089;47.876;8.346;2024-01-30T12:22:39;8.60;1.00
9699;DHT22;10089;47.876;8.346;2024-01-30T12:25:09;9.10;44.30
9699;DHT22;10089;47.876;8.346;2024-01-30T12:27:36;9.10;99.90
9699;DHT22;10089;47.876;8.346;2024-01-30T12:33:01;9.00;99.90
9699;DHT22;10089;47.876;8.346;2024-01-30T12:40:02;9.40;99.90
9699;DHT22;10089;47.876;8.346;2024-01-30T12:43:27;10.40;99.90
9699;DHT22;10089;47.876;8.346;2024-01-30T12:46:04;11.20;48.20
9699;DHT22;10089;47.876;8.346;2024-01-30T12:48:54;11.40;1.00
9699;DHT22;10089;47.876;8.346;2024-01-30T12:51:20;11.40;1.00
9699;DHT22;10089;47.876;8.346;2024-01-30T12:53:48;11.30;1.00
9699;DHT22;10089;47.876;8.346;2024-01-30T12:56:17;11.50;1.00
9699;DHT22;10089;47.876;8.346;2024-01-30T12:58:46;11.30;1.00
9699;DHT22;10089;47.876;8.346;2024-01-30T13:05:06;11.30;99.90
9699;DHT22;10089;47.876;8.346;2024-01-30T13:08:24;11.10;1.00
9699;DHT22;10089;47.876;8.346;2024-01-30T13:10:50;10.80;99.90
9699;DHT22;10089;47.876;8.346;2024-01-30T13:13:16;10.80;99.90
9699;DHT22;10089;47.876;8.346;2024-01-30T13:15:42;11.30;1.00
9699;DHT22;10089;47.876;8.346;2024-01-30T13:28:57;10.40;99.90
9699;DHT22;10089;47.876;8.346;2024-01-30T13:35:45;10.50;1.00
9699;DHT22;10089;47.876;8.346;2024-01-30T13:38:19;10.50;1.00
9699;DHT22;10089;47.876;8.346;2024-01-30T13:40:58;10.50;1.00
9699;DHT22;10089;47.876;8.346;2024-01-30T13:44:03;10.50;1.00
9699;DHT22;10089;47.876;8.346;2024-01-30T13:47:43;10.50;1.00
9699;DHT22;10089;47.876;8.346;2024-01-30T13:50:40;10.30;1.00
9699;DHT22;10089;47.876;8.346;2024-01-30T13:53:34;10.20;1.00
9699;DHT22;10089;47.876;8.346;2024-01-30T13:56:12;10.20;1.00
9699;DHT22;10089;47.876;8.346;2024-01-30T13:58:53;10.20;1.00
9699;DHT22;10089;47.876;8.346;2024-01-30T14:02:07;10.10;1.00
9699;DHT22;10089;47.876;8.346;2024-01-30T14:04:44;9.90;1.00
9699;DHT22;10089;47.876;8.346;2024-01-30T14:07:18;11.10;1.00
9699;DHT22;10089;47.876;8.346;2024-01-30T14:10:33;9.80;1.00
9699;DHT22;10089;47.876;8.346;2024-01-30T14:21:58;9.60;1.00
9699;DHT22;10089;47.876;8.346;2024-01-30T14:24:23;10.30;1.00
9699;DHT22;10089;47.876;8.346;2024-01-30T14:26:52;10.70;1.00
9699;DHT22;10089;47.876;8.346;2024-01-30T14:29:18;8.90;1.00
9699;DHT22;10089;47.876;8.346;2024-01-30T14:31:44;10.70;1.00
9699;DHT22;10089;47.876;8.346;2024-01-30T14:34:09;9.10;1.00
9699;DHT22;10089;47.876;8.346;2024-01-30T14:36:37;9.20;99.90
9699;DHT22;10089;47.876;8.346;2024-01-30T14:41:38;9.10;20.60
9699;DHT22;10089;47.876;8.346;2024-01-30T14:44:05;8.90;1.00
9699;DHT22;10089;47.876;8.346;2024-01-30T14:46:31;9.20;99.90
9699;DHT22;10089;47.876;8.346;2024-01-30T14:48:57;8.60;99.90
9699;DHT22;10089;47.876;8.346;2024-01-30T14:51:24;8.60;99.90
9699;DHT22;10089;47.876;8.346;2024-01-30T14:53:50;8.60;99.90
9699;DHT22;10089;47.876;8.346;2024-01-30T14:56:19;8.60;1.00
9699;DHT22;10089;47.876;8.346;2024-01-30T14:58:48;8.70;99.90
9699;DHT22;10089;47.876;8.346;2024-01-30T15:01:15;8.70;29.00
9699;DHT22;10089;47.876;8.346;2024-01-30T15:03:41;8.70;78.50
9699;DHT22;10089;47.876;8.346;2024-01-30T15:06:09;8.60;99.90
9699;DHT22;10089;47.876;8.346;2024-01-30T15:08:34;8.60;96.10
9699;DHT22;10089;47.876;8.346;2024-01-30T15:11:00;8.70;1.00
9699;DHT22;10089;47.876;8.346;2024-01-30T15:13:27;8.60;99.90
9699;DHT22;10089;47.876;8.346;2024-01-30T15:15:52;8.60;99.90
9699;DHT22;10089;47.876;8.346;2024-01-30T15:18:18;8.40;1.00
9699;DHT22;10089;47.876;8.346;2024-01-30T15:20:45;8.10;99.90
9699;DHT22;10089;47.876;8.346;2024-01-30T15:23:11;7.90;99.90
9699;DHT22;10089;47.876;8.346;2024-01-30T15:25:36;7.60;1.00
9699;DHT22;10089;47.876;8.346;2024-01-30T15:28:03;7.40;99.90
9699;DHT22;10089;47.876;8.346;2024-01-30T15:30:31;7.50;1.00
9699;DHT22;10089;47.876;8.346;2024-01-30T15:36:32;6.70;99.90
9699;DHT22;10089;47.876;8.346;2024-01-30T15:39:20;8.50;99.90
9699;DHT22;10089;47.876;8.346;2024-01-30T15:41:51;6.50;99.90
9699;DHT22;10089;47.876;8.346;2024-01-30T15:44:18;6.50;99.90
9699;DHT22;10089;47.876;8.346;2024-01-30T15:46:58;6.50;99.90
9699;DHT22;10089;47.876;8.346;2024-01-30T15:49:27;6.50;99.90
9699;DHT22;10089;47.876;8.346;2024-01-30T15:51:54;6.50;30.90
9699;DHT22;10089;47.876;8.346;2024-01-30T15:54:57;6.40;99.90
9699;DHT22;10089;47.876;8.346;2024-01-30T15:58:15;6.40;99.90
9699;DHT22;10089;47.876;8.346;2024-01-30T16:01:45;6.40;99.90
9699;DHT22;10089;47.876;8.346;2024-01-30T16:04:15;6.20;99.90
9699;DHT22;10089;47.876;8.346;2024-01-30T16:06:42;6.10;99.90
9699;DHT22;10089;47.876;8.346;2024-01-30T16:09:08;6.10;99.90
9699;DHT22;10089;47.876;8.346;2024-01-30T16:20:03;5.50;1.00
9699;DHT22;10089;47.876;8.346;2024-01-30T16:23:04;5.50;1.00
9699;DHT22;10089;47.876;8.346;2024-01-30T16:25:30;5.50;1.00
9699;DHT22;10089;47.876;8.346;2024-01-30T16:27:59;5.30;1.00
9699;DHT22;10089;47.876;8.346;2024-01-30T16:30:31;5.40;1.00
9699;DHT22;10089;47.876;8.346;2024-01-30T16:33:00;5.20;1.00
9699;DHT22;10089;47.876;8.346;2024-01-30T16:35:26;5.10;1.00
9699;DHT22;10089;47.876;8.346;2024-01-30T16:37:52;5.20;1.00
9699;DHT22;10089;47.876;8.346;2024-01-30T16:40:17;5.10;1.00
9699;DHT22;10089;47.876;8.346;2024-01-30T16:42:43;5.10;1.00
9699;DHT22;10089;47.876;8.346;2024-01-30T16:45:08;5.10;1.00
9699;DHT22;10089;47.876;8.346;2024-01-30T16:47:34;5.10;1.00
9699;DHT22;10089;47.876;8.346;2024-01-30T16:49:59;5.00;1.00
9699;DHT22;10089;47.876;8.346;2024-01-30T16:52:25;5.10;1.00
9699;DHT22;10089;47.876;8.346;2024-01-30T16:54:52;5.00;1.00
9699;DHT22;10089;47.876;8.346;2024-01-30T16:57:17;5.00;1.00
9699;DHT22;10089;47.876;8.346;2024-01-30T16:59:45;5.00;1.00
9699;DHT22;10089;47.876;8.346;2024-01-30T17:02:10;5.00;1.00
9699;DHT22;10089;47.876;8.346;2024-01-30T17:04:37;4.90;1.00
9699;DHT22;10089;47.876;8.346;2024-01-30T17:07:03;4.90;1.00
9699;DHT22;10089;47.876;8.346;2024-01-30T17:09:29;4.90;1.00
9699;DHT22;10089;47.876;8.346;2024-01-30T17:11:54;4.90;1.00
9699;DHT22;10089;47.876;8.346;2024-01-30T17:14:20;5.00;1.00
9699;DHT22;10089;47.876;8.346;2024-01-30T17:16:46;5.00;1.00
9699;DHT22;10089;47.876;8.346;2024-01-30T17:19:13;5.00;1.00
9699;DHT22;10089;47.876;8.346;2024-01-30T17:21:40;4.90;1.00
9699;DHT22;10089;47.876;8.346;2024-01-30T17:24:06;4.90;1.00
9699;DHT22;10089;47.876;8.346;2024-01-30T17:26:34;4.90;1.00
9699;DHT22;10089;47.876;8.346;2024-01-30T17:29:01;4.90;1.00
9699;DHT22;10089;47.876;8.346;2024-01-30T17:31:26;4.90;1.00
9699;DHT22;10089;47.876;8.346;2024-01-30T17:33:52;4.80;1.00
9699;DHT22;10089;47.876;8.346;2024-01-30T17:36:18;4.80;1.00
9699;DHT22;10089;47.876;8.346;2024-01-30T17:38:43;4.70;1.00
9699;DHT22;10089;47.876;8.346;2024-01-30T17:41:17;4.70;1.00
9699;DHT22;10089;47.876;8.346;2024-01-30T17:44:18;4.70;1.00
9699;DHT22;10089;47.876;8.346;2024-01-30T17:46:53;4.80;1.00
9699;DHT22;10089;47.876;8.346;2024-01-30T17:49:23;4.80;1.00
9699;DHT22;10089;47.876;8.346;2024-01-30T17:52:19;4.80;1.00
9699;DHT22;10089;47.876;8.346;2024-01-30T17:54:48;4.70;1.00
9699;DHT22;10089;47.876;8.346;2024-01-30T18:00:33;4.70;1.00
9699;DHT22;10089;47.876;8.346;2024-01-30T18:03:54;4.80;1.00
9699;DHT22;10089;47.876;8.346;2024-01-30T18:06:30;4.80;1.00
9699;DHT22;10089;47.876;8.346;2024-01-30T18:09:28;4.70;1.00
9699;DHT22;10089;47.876;8.346;2024-01-30T18:12:31;4.70;1.00
9699;DHT22;10089;47.876;8.346;2024-01-30T18:15:06;4.80;1.00
9699;DHT22;10089;47.876;8.346;2024-01-30T18:17:33;4.80;1.00
9699;DHT22;10089;47.876;8.346;2024-01-30T18:19:58;4.80;1.00
9699;DHT22;10089;47.876;8.346;2024-01-30T18:22:24;4.80;1.00
9699;DHT22;10089;47.876;8.346;2024-01-30T18:24:50;4.90;1.00
9699;DHT22;10089;47.876;8.346;2024-01-30T18:27:16;4.90;1.00
9699;DHT22;10089;47.876;8.346;2024-01-30T18:29:41;4.80;1.00
9699;DHT22;10089;47.876;8.346;2024-01-30T18:32:07;4.80;1.00
9699;DHT22;10089;47.876;8.346;2024-01-30T18:34:33;4.80;1.00
9699;DHT22;10089;47.876;8.346;2024-01-30T18:36:58;4.80;1.00
9699;DHT22;10089;47.876;8.346;2024-01-30T18:39:38;4.80;1.00
9699;DHT22;10089;47.876;8.346;2024-01-30T18:42:38;4.90;1.00
9699;DHT22;10089;47.876;8.346;2024-01-30T18:45:39;5.00;1.00
9699;DHT22;10089;47.876;8.346;2024-01-30T18:48:12;5.00;1.00
9699;DHT22;10089;47.876;8.346;2024-01-30T18:51:28;5.00;1.00
9699;DHT22;10089;47.876;8.346;2024-01-30T18:54:22;4.90;1.00
9699;DHT22;10089;47.876;8.346;2024-01-30T18:56:54;4.90;1.00
9699;DHT22;10089;47.876;8.346;2024-01-30T18:59:34;4.90;1.00
9699;DHT22;10089;47.876;8.346;2024-01-30T19:02:33;4.90;1.00
9699;DHT22;10089;47.876;8.346;2024-01-30T19:10:12;4.80;1.00
9699;DHT22;10089;47.876;8.346;2024-01-30T19:13:08;4.80;1.00
9699;DHT22;10089;47.876;8.346;2024-01-30T19:17:06;4.80;1.00
9699;DHT22;10089;47.876;8.346;2024-01-30T19:24:47;4.70;1.00
9699;DHT22;10089;47.876;8.346;2024-01-30T19:48:08;4.40;1.00
9699;DHT22;10089;47.876;8.346;2024-01-30T19:50:33;4.40;1.00
9699;DHT22;10089;47.876;8.346;2024-01-30T19:52:59;4.50;1.00
9699;DHT22;10089;47.876;8.346;2024-01-30T19:55:24;6.20;1.00
9699;DHT22;10089;47.876;8.346;2024-01-30T19:57:51;4.40;1.00
9699;DHT22;10089;47.876;8.346;2024-01-30T20:00:17;5.30;1.00
9699;DHT22;10089;47.876;8.346;2024-01-30T20:02:42;4.30;1.00
9699;DHT22;10089;47.876;8.346;2024-01-30T20:05:08;4.20;1.00
9699;DHT22;10089;47.876;8.346;2024-01-30T20:07:34;4.10;1.00
9699;DHT22;10089;47.876;8.346;2024-01-30T20:10:01;4.30;1.00
9699;DHT22;10089;47.876;8.346;2024-01-30T20:12:26;4.10;1.00
9699;DHT22;10089;47.876;8.346;2024-01-30T20:14:52;4.00;1.00
9699;DHT22;10089;47.876;8.346;2024-01-30T20:17:18;4.50;1.00
9699;DHT22;10089;47.876;8.346;2024-01-30T20:19:44;4.10;1.00
9699;DHT22;10089;47.876;8.346;2024-01-30T20:22:10;4.00;1.00
9699;DHT22;10089;47.876;8.346;2024-01-30T20:24:36;5.30;1.00
9699;DHT22;10089;47.876;8.346;2024-01-30T20:27:01;3.60;26.20
9699;DHT22;10089;47.876;8.346;2024-01-30T20:29:27;4.00;20.20
9699;DHT22;10089;47.876;8.346;2024-01-30T20:31:52;3.80;17.30
9699;DHT22;10089;47.876;8.346;2024-01-30T20:34:18;3.70;8.80
9699;DHT22;10089;47.876;8.346;2024-01-30T20:36:44;3.70;59.50
9699;DHT22;10089;47.876;8.346;2024-01-30T20:39:09;3.90;55.10
9699;DHT22;10089;47.876;8.346;2024-01-30T20:41:41;3.70;43.60
9699;DHT22;10089;47.876;8.346;2024-01-30T20:44:06;3.80;64.80
9699;DHT22;10089;47.876;8.346;2024-01-30T20:46:33;3.60;71.70
9699;DHT22;10089;47.876;8.346;2024-01-30T20:48:58;4.10;68.10
9699;DHT22;10089;47.876;8.346;2024-01-30T20:51:24;3.70;87.20
9699;DHT22;10089;47.876;8.346;2024-01-30T20:53:49;3.50;98.80
9699;DHT22;10089;47.876;8.346;2024-01-30T20:56:15;3.60;99.90
9699;DHT22;10089;47.876;8.346;2024-01-30T20:58:41;3.60;99.90
9699;DHT22;10089;47.876;8.346;2024-01-30T21:01:07;3.80;99.90
9699;DHT22;10089;47.876;8.346;2024-01-30T21:03:33;3.60;92.10
9699;DHT22;10089;47.876;8.346;2024-01-30T21:05:58;4.00;71.20
9699;DHT22;10089;47.876;8.346;2024-01-30T21:08:25;4.00;1.00
9699;DHT22;10089;47.876;8.346;2024-01-30T21:10:51;5.30;1.00
9699;DHT22;10089;47.876;8.346;2024-01-30T21:13:17;4.30;1.00
9699;DHT22;10089;47.876;8.346;2024-01-30T21:15:43;4.30;1.00
9699;DHT22;10089;47.876;8.346;2024-01-30T21:18:09;4.20;1.00
9699;DHT22;10089;47.876;8.346;2024-01-30T21:20:35;4.70;1.00
9699;DHT22;10089;47.876;8.346;2024-01-30T21:23:00;4.70;1.00
9699;DHT22;10089;47.876;8.346;2024-01-30T21:25:26;4.50;1.00
9699;DHT22;10089;47.876;8.346;2024-01-30T21:27:54;4.50;1.00
9699;DHT22;10089;47.876;8.346;2024-01-30T21:30:20;4.50;1.00
9699;DHT22;10089;47.876;8.346;2024-01-30T21:32:46;4.40;1.00
9699;DHT22;10089;47.876;8.346;2024-01-30T21:35:11;4.20;1.00
9699;DHT22;10089;47.876;8.346;2024-01-30T21:37:38;4.20;1.00
9699;DHT22;10089;47.876;8.346;2024-01-30T21:40:06;4.00;1.00